x

Long Key, Fl (lonf1) Weather Station

2:00am - Sun 26th Feb 2017 All times are CST. -5 hours from GMT.

  • Wind
    10mph, 11mph gusts
  • Sea Temp 76°f
  • Air Temp 72°f
  • Sea Pressure 1016.2mb
  • Long Key, Fl
  • Long Key, Fl

More Historic Weather Station data

Upgrade to MSW Pro to gain access to the past 30 days of data for over 8000 Wavebouys and Weather Stations around the globe.

Join Pro

Comparision Forecast

View Surf forecast
   
Sun 02/26 2:00am 10 11 mph 1016.2mb 76f 72f
1:00am 8 9 mph 1016.1mb 76f 73f
12:00am 15 16 mph 1016mb 76f 73f
Sat 02/25 11:00pm 11
mph
1015.9mb 76f 72f
10:00pm 11 13 mph 1015.8mb 76f 72f
9:00pm 16 17 mph 1015.3mb 76f 72f
8:00pm 15 17 mph 1014.7mb 77f 73f
7:00pm 15 17 mph 1014.1mb 77f 73f
6:00pm 14 16 mph 1013.7mb 76f 73f
5:00pm 13 16 mph 1013.6mb 77f 73f
4:00pm 9 11 mph 1013.3mb 76f 73f
3:00pm 8 9 mph 1013.4mb 76f 74f
2:00pm 5 6 mph 1013.5mb 76f 73f
1:00pm 5 6 mph 1014mb 75f 73f
12:00pm 3 5 mph 1014.5mb 75f 73f
11:00am  -  1 mph 1014.3mb 74f 74f
10:00am  -  1 mph 1013.9mb 74f 76f
9:00am  -  1 mph 1013.7mb 74f 74f
8:00am  -  mph 1013.1mb 73f 73f
7:00am 2
mph
1012.8mb 73f 71f
6:00am  -  mph 1012.2mb 74f 71f
5:00am 3
mph
1011.6mb 74f 71f
4:00am 7 8 mph 1011.3mb 74f 71f
3:00am 10 11 mph 1011.4mb 74f 71f
2:00am 11 13 mph 1011.6mb 74f 71f
1:00am 14 15 mph 1012mb 74f 71f
12:00am 13 14 mph 1012.1mb 74f 72f
Fri 02/24 11:00pm 10 11 mph 1011.9mb 74f 72f
10:00pm 9 10 mph 1011.5mb 74f 72f
9:00pm 9 10 mph 1011.1mb 74f 72f
8:00pm 8 9 mph 1010.4mb 75f 72f
7:00pm 10 11 mph 1009.7mb 75f 72f
6:00pm 8 10 mph 1009.5mb 75f 72f
5:00pm 8 9 mph 1009mb 75f 72f
4:00pm 3 6 mph 1008.9mb 75f 72f
3:00pm 5 7 mph 1008.8mb 75f 71f
2:00pm 2 3 mph 1009.2mb 74f 70f
1:00pm 5 6 mph 1009.5mb 74f 69f
12:00pm 3
mph
1010mb 73f 68f
11:00am 3
mph
1010.5mb 73f 68f
10:00am 7 8 mph 1010.5mb 73f 68f
9:00am 11 13 mph 1010mb 72f 69f
8:00am 10 11 mph 1009.2mb 72f 69f
7:00am 13 15 mph 1008.5mb 72f 71f
6:00am 9 10 mph 1007.9mb 72f 71f
5:00am 9
mph
1007.3mb 72f 71f
4:00am 10
mph
1006.9mb 72f 71f
3:00am 8 9 mph 1006.8mb 72f 71f
2:00am 10 11 mph 1007.1mb 73f 71f
1:00am 10 13 mph 1007.2mb 73f 71f
12:00am 13 15 mph 1007.1mb 73f 71f
Thu 02/23 11:00pm 15 16 mph 1007.5mb 73f 71f
10:00pm 17 20 mph 1007mb 73f 71f
9:00pm 16 17 mph 1006.5mb 73f 71f
8:00pm 17 21 mph 1006mb 73f 71f
7:00pm 15 18 mph 1005.2mb 74f 71f
6:00pm 13 15 mph 1004.7mb 74f 71f
5:00pm 17 20 mph 1004.6mb 74f 71f
4:00pm 15 17 mph 1004.4mb 74f 72f
3:00pm 17 20 mph 1004.4mb 74f 71f
2:00pm 17 18 mph 1004.5mb 73f 71f
1:00pm 14 15 mph 1005.1mb 73f 72f
12:00pm 8 9 mph 1005.8mb 73f 71f
11:00am 10 11 mph 1006.3mb 72f 71f
10:00am 7 8 mph 1006.4mb 72f 69f
9:00am 14 16 mph 1006.1mb 72f 71f
8:00am 14 16 mph 1005.3mb 72f 71f
7:00am 14 16 mph 1004.9mb 72f 71f
6:00am 11 14 mph 1004.6mb 72f 70f
5:00am 13 15 mph 1004.1mb 72f 71f